Time;durP1;ratioP1;P1;durP2;ratioP2;P2;SDS_P1;SDS_P2;PMS_P1;PMS_P2;Temp;Humidity;BMP_temperature;BMP_pressure;BME280_temperature;BME280_humidity;BME280_pressure;Samples;Min_cycle;Max_cycle;Signal;HPM_P1;HPM_P2
2021/01/14 00:01:15;;;;;;;15.95;8.00;;;;;;;0.36;76.33;99462.13;5035233;28;20038;-70
2021/01/14 00:03:41;;;;;;;17.88;8.25;;;;;;;0.33;77.22;99470.09;5017912;28;20040;-68
2021/01/14 00:06:08;;;;;;;16.58;9.07;;;;;;;0.06;77.58;99419.34;5017615;28;20461;-75
2021/01/14 00:08:33;;;;;;;20.35;10.02;;;;;;;0.30;77.40;99459.72;5035817;28;20029;-69
2021/01/14 00:10:59;;;;;;;20.42;10.73;;;;;;;0.28;77.62;99435.28;5035356;28;20037;-69
2021/01/14 00:13:24;;;;;;;17.60;9.60;;;;;;;0.35;77.40;99456.94;5017339;28;20037;-69
2021/01/14 00:15:50;;;;;;;19.33;10.57;;;;;;;0.31;77.55;99437.81;5035317;28;20399;-70
2021/01/14 00:18:15;;;;;;;21.95;11.43;;;;;;;0.29;77.21;99426.53;5017253;28;20087;-70
2021/01/14 00:20:40;;;;;;;19.48;10.68;;;;;;;0.23;77.22;99422.31;5035446;28;20466;-68
2021/01/14 00:23:06;;;;;;;19.65;11.18;;;;;;;0.31;78.10;99429.09;5035185;28;20045;-70
2021/01/14 00:25:31;;;;;;;22.25;11.40;;;;;;;0.31;77.90;99414.22;5017086;28;20059;-70
2021/01/14 00:27:57;;;;;;;23.08;12.57;;;;;;;0.40;77.70;99419.16;5035082;28;20042;-70
2021/01/14 00:30:28;;;;;;;24.45;11.63;;;;;;;0.19;77.67;99404.97;5034740;28;20033;-70
2021/01/14 00:32:58;;;;;;;21.33;11.82;;;;;;;0.16;77.96;99397.19;5035131;28;20056;-71
2021/01/14 00:35:26;;;;;;;21.65;11.60;;;;;;;0.17;77.99;99417.25;5000880;28;20105;-71
2021/01/14 00:37:52;;;;;;;23.48;12.02;;;;;;;0.16;78.12;99415.53;5034640;28;20216;-71
2021/01/14 00:40:19;;;;;;;24.45;12.38;;;;;;;0.15;78.39;99433.94;5034328;28;20427;-71
2021/01/14 00:42:44;;;;;;;24.23;12.10;;;;;;;0.19;78.25;99423.34;5034733;28;20036;-71
2021/01/14 00:45:12;;;;;;;24.77;13.63;;;;;;;0.10;78.96;99420.13;5034523;28;20033;-71
2021/01/14 00:47:38;;;;;;;22.77;12.48;;;;;;;0.14;78.30;99427.00;5034660;28;20029;-71
2021/01/14 00:50:05;;;;;;;26.95;13.65;;;;;;;0.17;78.46;99417.25;5034651;28;20475;-70
2021/01/14 00:52:31;;;;;;;26.25;13.43;;;;;;;0.16;78.89;99425.19;5016724;28;20071;-71
2021/01/14 00:54:56;;;;;;;24.75;13.50;;;;;;;0.10;78.94;99425.38;5016664;28;20061;-71
2021/01/14 00:57:22;;;;;;;24.70;13.63;;;;;;;0.17;79.30;99429.50;5016609;28;20164;-68
2021/01/14 00:59:47;;;;;;;25.90;13.32;;;;;;;0.14;79.10;99424.38;4984246;28;20371;-69
2021/01/14 01:02:13;;;;;;;26.35;13.55;;;;;;;0.15;78.79;99441.81;5033810;28;20029;-71
2021/01/14 01:04:40;;;;;;;26.65;13.68;;;;;;;0.08;79.08;99437.66;5033425;28;20128;-70
2021/01/14 01:07:06;;;;;;;27.15;13.40;;;;;;;-0.13;79.21;99398.09;5034342;28;20128;-70
2021/01/14 01:09:32;;;;;;;27.83;14.77;;;;;;;-0.05;79.39;99417.06;5033748;28;20037;-70
2021/01/14 01:11:57;;;;;;;25.65;13.63;;;;;;;0.05;79.27;99408.91;5033968;28;20036;-70
2021/01/14 01:14:23;;;;;;;30.58;14.02;;;;;;;-0.30;79.23;99368.91;5016199;28;20382;-70
2021/01/14 01:16:55;;;;;;;30.40;15.13;;;;;;;-0.15;79.81;99410.38;5034487;28;20079;-70
2021/01/14 01:19:21;;;;;;;28.42;15.13;;;;;;;-0.02;80.02;99432.69;5000206;28;20124;-70
2021/01/14 01:21:46;;;;;;;28.67;14.85;;;;;;;-0.07;80.12;99429.38;5016479;28;20128;-71
2021/01/14 01:24:12;;;;;;;23.58;13.75;;;;;;;0.05;80.25;99437.75;5044918;28;20087;-70
2021/01/14 01:26:37;;;;;;;27.63;15.40;;;;;;;0.12;79.72;99428.81;5019339;28;20051;-68
2021/01/14 01:29:03;;;;;;;30.73;15.23;;;;;;;-0.10;79.90;99395.34;5053922;28;20025;-67
2021/01/14 01:31:28;;;;;;;28.55;14.82;;;;;;;-0.14;80.09;99385.03;5053483;28;20040;-68
2021/01/14 01:33:55;;;;;;;26.23;14.98;;;;;;;-0.01;79.65;99402.94;5035770;28;20508;-68
2021/01/14 01:36:20;;;;;;;27.45;15.10;;;;;;;-0.13;80.05;99374.50;5053115;28;20086;-67
2021/01/14 01:38:45;;;;;;;30.42;15.75;;;;;;;0.01;79.93;99412.56;5053577;28;20044;-68
2021/01/14 01:41:11;;;;;;;28.05;14.27;;;;;;;-0.05;80.06;99401.34;5035746;28;20028;-67
2021/01/14 01:43:36;;;;;;;33.17;15.32;;;;;;;-0.02;80.78;99406.47;5053035;28;20502;-69
2021/01/14 01:46:03;;;;;;;26.92;14.32;;;;;;;0.01;80.67;99391.59;5053544;28;20556;-69
2021/01/14 01:48:29;;;;;;;24.92;13.70;;;;;;;0.12;79.62;99394.72;5035437;28;20032;-68
2021/01/14 01:50:57;;;;;;;24.63;13.23;;;;;;;-0.04;80.17;99382.06;5035820;28;20036;-69
2021/01/14 01:53:23;;;;;;;28.98;13.77;;;;;;;-0.13;79.73;99350.91;5035190;28;20037;-68
2021/01/14 01:55:50;;;;;;;22.75;12.77;;;;;;;0.19;78.84;99378.75;5053503;28;20527;-68
2021/01/14 01:58:20;;;;;;;23.10;12.35;;;;;;;0.26;77.92;99389.88;5052707;28;20398;-68
2021/01/14 02:00:45;;;;;;;25.63;11.98;;;;;;;0.19;78.39;99389.25;5035407;28;20108;-69
2021/01/14 02:03:11;;;;;;;21.73;11.75;;;;;;;0.24;78.25;99378.59;5019188;28;20051;-67
2021/01/14 02:05:36;;;;;;;21.52;11.65;;;;;;;0.23;78.17;99388.22;5035193;28;20025;-68
2021/01/14 02:08:39;;;;;;;25.95;11.05;;;;;;;0.13;77.12;99341.38;5053186;28;20029;-70
2021/01/14 02:11:11;;;;;;;20.67;9.57;;;;;;;0.26;77.40;99368.91;5035302;28;20021;-70
2021/01/14 02:14:01;;;;;;;20.40;9.70;;;;;;;0.24;77.45;99347.13;5053067;28;20029;-70
2021/01/14 02:16:27;;;;;;;24.13;11.90;;;;;;;0.49;76.99;99376.91;5052626;28;20060;-70
2021/01/14 02:18:54;;;;;;;21.52;11.20;;;;;;;0.46;77.34;99373.50;5035550;28;20054;-70
2021/01/14 02:21:24;;;;;;;19.60;9.65;;;;;;;0.35;77.33;99352.84;5052666;28;20029;-70
2021/01/14 02:24:05;;;;;;;18.48;9.98;;;;;;;0.44;77.83;99349.94;5052996;28;20037;-70
2021/01/14 02:26:32;;;;;;;19.15;9.50;;;;;;;0.45;77.70;99349.03;5052325;28;20052;-70
2021/01/14 02:28:59;;;;;;;17.75;8.95;;;;;;;0.45;77.16;99327.19;5052937;28;20037;-70
2021/01/14 02:31:25;;;;;;;15.00;8.02;;;;;;;0.19;77.15;99283.44;5034952;28;20128;-70
2021/01/14 02:33:52;;;;;;;16.40;8.80;;;;;;;0.57;77.32;99322.34;5034742;28;20120;-70
2021/01/14 02:36:19;;;;;;;14.02;7.80;;;;;;;0.64;76.97;99327.41;5018530;28;20040;-71
2021/01/14 02:38:45;;;;;;;12.25;6.90;;;;;;;0.71;76.81;99314.03;5061409;28;20049;-71
2021/01/14 02:41:10;;;;;;;14.75;7.38;;;;;;;0.73;76.88;99303.47;5072641;28;20036;-71
2021/01/14 02:43:36;;;;;;;11.55;6.47;;;;;;;0.67;77.02;99301.91;5072320;28;20029;-71
2021/01/14 02:46:03;;;;;;;12.98;6.90;;;;;;;0.43;77.29;99255.53;5071605;28;20058;-70
2021/01/14 02:48:34;;;;;;;11.25;6.50;;;;;;;0.60;77.13;99278.56;5072288;28;20115;-71
2021/01/14 02:51:05;;;;;;;12.50;6.38;;;;;;;0.63;76.61;99281.94;5072769;28;20417;-71
2021/01/14 02:53:33;;;;;;;12.30;6.80;;;;;;;0.38;77.67;99233.84;5071398;28;20117;-70
2021/01/14 02:56:01;;;;;;;14.27;7.15;;;;;;;0.67;76.58;99277.41;5073009;28;20037;-70
2021/01/14 02:58:28;;;;;;;14.48;6.65;;;;;;;0.72;76.17;99263.25;5072516;28;20051;-70
2021/01/14 03:00:55;;;;;;;12.90;6.97;;;;;;;0.70;75.79;99245.84;5055013;28;20043;-70
2021/01/14 03:03:21;;;;;;;12.93;7.05;;;;;;;0.83;75.68;99252.34;5072509;28;20047;-70
2021/01/14 03:05:46;;;;;;;12.00;6.82;;;;;;;0.76;75.62;99256.09;5071692;28;20388;-70
2021/01/14 03:08:11;;;;;;;13.90;7.55;;;;;;;0.81;75.07;99243.69;5072293;28;20367;-70
2021/01/14 03:10:37;;;;;;;12.45;6.53;;;;;;;0.76;75.09;99250.84;5070857;28;20033;-70
2021/01/14 03:13:02;;;;;;;10.68;5.75;;;;;;;0.77;74.78;99232.44;5072589;28;20086;-70
2021/01/14 03:15:28;;;;;;;9.27;4.53;;;;;;;0.75;74.53;99220.25;5072199;28;20124;-70
2021/01/14 03:17:53;;;;;;;8.75;4.85;;;;;;;0.60;74.28;99189.34;5072286;28;20032;-70
2021/01/14 03:20:19;;;;;;;9.45;4.57;;;;;;;0.81;74.10;99226.16;5071914;28;20545;-80
2021/01/14 03:22:44;;;;;;;9.90;4.60;;;;;;;0.60;74.04;99179.69;5071273;28;20086;-70
2021/01/14 03:25:11;;;;;;;6.18;3.30;;;;;;;0.86;73.61;99223.34;5072523;28;20124;-70
2021/01/14 03:27:42;;;;;;;7.50;3.72;;;;;;;0.91;73.85;99221.41;5073760;28;20055;-71
2021/01/14 03:30:10;;;;;;;5.65;3.17;;;;;;;0.86;73.95;99212.84;5074968;28;20533;-70
2021/01/14 03:32:35;;;;;;;6.95;3.72;;;;;;;0.64;73.71;99170.78;5075787;28;20534;-71
2021/01/14 03:35:01;;;;;;;7.00;3.80;;;;;;;0.55;74.10;99166.72;5076034;28;20036;-71
2021/01/14 03:37:26;;;;;;;7.72;4.03;;;;;;;0.84;74.21;99193.69;5071444;28;20049;-71
2021/01/14 03:39:52;;;;;;;7.53;3.70;;;;;;;0.84;73.74;99194.53;5055905;28;20459;-70
2021/01/14 03:42:22;;;;;;;8.77;3.95;;;;;;;0.75;74.12;99194.00;5038095;28;20083;-69
2021/01/14 03:44:48;;;;;;;7.40;3.65;;;;;;;0.65;74.00;99176.91;5055840;28;20086;-70
2021/01/14 03:47:14;;;;;;;6.72;3.30;;;;;;;0.72;74.50;99173.13;5055511;28;20115;-70
2021/01/14 03:49:40;;;;;;;5.78;3.30;;;;;;;0.63;74.38;99162.97;5037384;28;20067;-70
2021/01/14 03:52:09;;;;;;;5.32;3.28;;;;;;;0.43;75.17;99129.59;5055820;28;20044;-70
2021/01/14 03:54:34;;;;;;;5.75;3.22;;;;;;;0.61;75.63;99177.94;5055188;28;20025;-70
2021/01/14 03:57:00;;;;;;;7.43;3.47;;;;;;;0.50;76.15;99173.94;5055296;28;20041;-69
2021/01/14 03:59:25;;;;;;;7.60;2.97;;;;;;;0.51;76.53;99159.91;5020869;28;20044;-71
2021/01/14 04:01:50;;;;;;;6.28;3.35;;;;;;;0.15;76.60;99109.63;5037656;28;20146;-69
2021/01/14 04:04:16;;;;;;;6.75;3.65;;;;;;;0.41;77.68;99161.16;5055239;28;20064;-68
2021/01/14 04:06:41;;;;;;;6.00;3.35;;;;;;;0.41;77.88;99153.28;5055121;28;20033;-70
2021/01/14 04:09:07;;;;;;;8.98;4.03;;;;;;;0.44;77.89;99158.41;5037571;28;20036;-70
2021/01/14 04:11:33;;;;;;;7.47;4.32;;;;;;;0.38;78.78;99152.50;5037289;28;20413;-70
2021/01/14 04:14:02;;;;;;;8.32;4.15;;;;;;;0.32;78.63;99137.88;5055066;28;20032;-70
2021/01/14 04:16:27;;;;;;;9.13;4.22;;;;;;;0.37;78.95;99154.28;5054853;28;20033;-70
2021/01/14 04:18:53;;;;;;;8.55;4.63;;;;;;;0.32;79.39;99158.84;5037502;28;20040;-70
2021/01/14 04:21:18;;;;;;;9.50;4.90;;;;;;;0.33;79.92;99157.94;5037199;28;20040;-71
2021/01/14 04:23:44;;;;;;;6.78;4.30;;;;;;;0.33;80.11;99154.47;5037075;28;20036;-70
2021/01/14 04:26:11;;;;;;;8.48;4.60;;;;;;;0.37;80.08;99159.53;5055156;28;20355;-70
2021/01/14 04:28:37;;;;;;;8.65;4.47;;;;;;;0.36;79.91;99149.94;5054473;28;20032;-70
2021/01/14 04:31:03;;;;;;;8.85;4.70;;;;;;;0.11;79.71;99102.78;5020702;28;20124;-69
2021/01/14 04:33:29;;;;;;;7.40;4.30;;;;;;;0.34;79.55;99146.53;5036876;28;20033;-68
2021/01/14 04:35:56;;;;;;;5.95;4.10;;;;;;;0.38;79.88;99158.63;5037334;28;20084;-68
2021/01/14 04:38:24;;;;;;;6.90;4.05;;;;;;;0.36;79.75;99134.22;5054440;28;20059;-70
2021/01/14 04:41:01;;;;;;;7.65;4.22;;;;;;;0.40;79.71;99135.84;5036661;28;20040;-69
2021/01/14 04:43:29;;;;;;;7.97;4.38;;;;;;;0.25;79.55;99115.41;5054194;28;20032;-73
2021/01/14 04:46:08;;;;;;;9.23;5.47;;;;;;;0.34;79.79;99130.78;5055037;28;20025;-68
2021/01/14 04:48:34;;;;;;;8.45;4.30;;;;;;;0.50;79.57;99152.94;5054129;28;20033;-69
2021/01/14 04:51:10;;;;;;;9.88;4.97;;;;;;;0.37;79.68;99129.81;5054403;28;20037;-71
2021/01/14 04:53:38;;;;;;;9.20;5.43;;;;;;;0.46;79.68;99151.31;5054256;28;20041;-70
2021/01/14 04:56:06;;;;;;;12.07;5.22;;;;;;;0.24;79.60;99097.94;5054774;28;20033;-70
2021/01/14 04:58:34;;;;;;;7.63;4.82;;;;;;;0.46;79.89;99134.72;5054162;28;20159;-69
2021/01/14 05:01:04;;;;;;;9.00;4.80;;;;;;;0.50;79.60;99136.34;5054302;28;20033;-69
2021/01/14 05:03:34;;;;;;;7.70;4.18;;;;;;;0.43;79.80;99125.22;5036172;28;20028;-69
2021/01/14 05:06:02;;;;;;;8.48;4.47;;;;;;;0.33;80.11;99121.22;5054299;28;20033;-69
2021/01/14 05:08:32;;;;;;;8.68;4.80;;;;;;;0.31;80.49;99117.81;5036254;28;20036;-77
2021/01/14 05:10:59;;;;;;;6.30;3.25;;;;;;;0.40;80.42;99134.97;5036305;28;20127;-70
2021/01/14 05:13:29;;;;;;;7.57;3.55;;;;;;;0.38;80.52;99128.91;5054060;28;20352;-69
2021/01/14 05:15:55;;;;;;;10.02;4.97;;;;;;;0.45;80.76;99135.66;5036433;28;20455;-69
2021/01/14 05:18:20;;;;;;;8.98;4.40;;;;;;;0.21;81.19;99103.31;5036348;28;20115;-70
2021/01/14 05:20:45;;;;;;;9.38;4.95;;;;;;;0.36;81.50;99134.22;5019430;28;20033;-70
2021/01/14 05:23:13;;;;;;;8.30;5.03;;;;;;;0.27;81.83;99124.06;5053986;28;20382;-70
2021/01/14 05:25:51;;;;;;;11.55;5.13;;;;;;;0.44;81.90;99144.44;5053282;28;20057;-70
2021/01/14 05:28:17;;;;;;;9.07;5.55;;;;;;;0.21;82.29;99108.56;5053890;28;20055;-70
2021/01/14 05:30:43;;;;;;;10.25;5.50;;;;;;;0.38;82.83;99137.63;5013675;28;20120;-68
2021/01/14 05:33:12;;;;;;;11.10;6.50;;;;;;;0.31;83.39;99141.41;5034208;28;20049;-68
2021/01/14 05:35:47;;;;;;;13.57;6.65;;;;;;;0.24;83.59;99124.19;5033524;28;20037;-70
2021/01/14 05:38:23;;;;;;;11.77;6.53;;;;;;;0.31;84.08;99136.16;5033477;28;20112;-69
2021/01/14 05:43:59;;;;;;;12.48;6.57;;;;;;;0.23;85.21;99138.19;5053276;28;20498;-69
2021/01/14 05:46:28;;;;;;;13.50;7.10;;;;;;;0.26;86.20;99145.94;5053076;28;20036;-69
2021/01/14 05:48:59;;;;;;;13.27;7.90;;;;;;;0.24;87.22;99146.00;5053151;28;20033;-70
2021/01/14 05:51:27;;;;;;;16.17;8.48;;;;;;;0.15;87.88;99127.97;5049591;28;20025;-69
2021/01/14 05:54:05;;;;;;;14.13;8.35;;;;;;;-0.14;89.08;99086.22;5050195;28;20029;-68
2021/01/14 05:56:36;;;;;;;14.73;8.32;;;;;;;0.11;90.05;99143.88;5053655;28;20355;-79
2021/01/14 05:59:08;;;;;;;16.65;9.15;;;;;;;0.03;90.79;99144.16;5053350;28;20032;-69
2021/01/14 06:01:35;;;;;;;20.08;9.35;;;;;;;-0.04;90.99;99132.16;5052971;28;20060;-69
2021/01/14 06:04:17;;;;;;;18.83;9.70;;;;;;;-0.05;91.69;99147.03;5053158;28;20044;-69
2021/01/14 06:06:44;;;;;;;16.45;9.52;;;;;;;0.05;91.54;99138.84;5052861;28;20445;-69
2021/01/14 06:09:12;;;;;;;17.85;9.50;;;;;;;-0.09;91.63;99128.88;5053257;28;20037;-68
2021/01/14 06:11:37;;;;;;;14.85;8.43;;;;;;;-0.15;91.86;99137.78;5052738;28;20045;-68
2021/01/14 06:14:03;;;;;;;20.63;9.40;;;;;;;-0.09;92.16;99139.34;5053175;28;20532;-70
2021/01/14 06:16:29;;;;;;;18.55;9.55;;;;;;;-0.05;92.55;99139.16;5053071;28;20075;-69
2021/01/14 06:19:08;;;;;;;18.15;9.95;;;;;;;0.00;92.02;99141.66;5052722;28;20029;-67
2021/01/14 06:21:47;;;;;;;20.23;9.85;;;;;;;-0.09;91.82;99116.59;5034866;28;20496;-78
2021/01/14 06:24:39;;;;;;;16.20;8.82;;;;;;;-0.08;91.82;99141.91;5052759;28;20170;-67
2021/01/14 06:27:05;;;;;;;17.67;10.73;;;;;;;-0.13;92.37;99146.44;5049365;28;20375;-66
2021/01/14 06:29:32;;;;;;;16.40;8.73;;;;;;;-0.07;92.67;99146.25;5053389;28;20043;-66
2021/01/14 06:32:09;;;;;;;19.75;10.68;;;;;;;-0.19;92.44;99151.03;5034785;28;20033;-66
2021/01/14 06:34:35;;;;;;;24.05;12.52;;;;;;;-0.26;92.30;99126.81;5052990;28;20140;-76
2021/01/14 06:37:12;;;;;;;22.85;12.07;;;;;;;-0.17;92.39;99150.09;5034962;28;20075;-66
2021/01/14 06:39:48;;;;;;;25.90;13.27;;;;;;;-0.13;92.31;99156.06;5052871;28;20024;-67
2021/01/14 06:42:45;;;;;;;22.73;11.55;;;;;;;-0.31;92.36;99153.16;5035387;28;20032;-67
2021/01/14 06:45:13;;;;;;;26.90;15.07;;;;;;;-0.25;92.57;99151.25;5051199;28;20033;-68
2021/01/14 06:47:46;;;;;;;26.98;15.07;;;;;;;-0.18;92.62;99152.75;5052671;28;20061;-68
2021/01/14 06:50:17;;;;;;;25.38;14.25;;;;;;;-0.16;92.41;99157.03;5052884;28;20378;-66
2021/01/14 06:52:54;;;;;;;24.05;13.10;;;;;;;-0.06;92.34;99161.06;5052288;28;20033;-66
2021/01/14 06:55:24;;;;;;;23.83;12.07;;;;;;;-0.26;92.48;99145.16;5035603;28;20047;-67
2021/01/14 06:58:09;;;;;;;24.88;13.57;;;;;;;-0.20;92.46;99144.94;5052416;28;20026;-67
2021/01/14 07:00:48;;;;;;;17.27;9.93;;;;;;;-0.44;92.46;99096.00;5052615;28;20032;-67
2021/01/14 07:03:16;;;;;;;14.38;8.02;;;;;;;-0.14;91.83;99143.88;5055468;28;20363;-69
2021/01/14 07:06:04;;;;;;;13.57;7.32;;;;;;;-0.13;91.45;99140.34;5056141;28;20036;-67
2021/01/14 07:08:53;;;;;;;9.68;6.20;;;;;;;-0.22;91.29;99140.66;5056567;28;20434;-68
2021/01/14 07:11:22;;;;;;;10.00;6.13;;;;;;;-0.27;91.14;99127.72;5056326;28;20489;-68
2021/01/14 07:13:52;;;;;;;12.20;6.57;;;;;;;-0.10;90.35;99129.75;5038710;28;20359;-67
2021/01/14 07:16:19;;;;;;;10.85;6.07;;;;;;;-0.22;89.18;99099.56;5056719;28;20462;-67
2021/01/14 07:18:45;;;;;;;10.35;6.40;;;;;;;-0.31;89.48;99082.41;5038302;28;20086;-67
2021/01/14 07:21:30;;;;;;;7.85;4.97;;;;;;;-0.06;89.03;99129.59;5056048;28;20521;-66
2021/01/14 07:24:09;;;;;;;9.77;5.75;;;;;;;0.03;89.05;99138.06;5056008;28;20024;-67
2021/01/14 07:26:39;;;;;;;8.65;5.13;;;;;;;-0.35;88.96;99090.44;5056215;28;20053;-68
2021/01/14 07:29:05;;;;;;;7.70;3.45;;;;;;;-0.02;88.49;99143.44;5056237;28;20062;-68
2021/01/14 07:31:31;;;;;;;11.50;5.82;;;;;;;-0.16;87.98;99109.00;5055955;28;20049;-67
2021/01/14 07:33:56;;;;;;;11.23;6.05;;;;;;;0.17;87.44;99143.66;5055927;28;20033;-67
2021/01/14 07:36:26;;;;;;;9.40;5.55;;;;;;;0.23;86.49;99153.94;5021946;28;20033;-68
2021/01/14 07:38:57;;;;;;;9.25;5.07;;;;;;;0.24;86.41;99161.75;5055897;28;20052;-67
2021/01/14 07:41:23;;;;;;;12.95;5.68;;;;;;;0.27;85.56;99142.41;5038234;28;20132;-68
2021/01/14 07:43:49;;;;;;;12.52;6.40;;;;;;;0.31;86.04;99146.66;5038087;28;20120;-67
2021/01/14 07:46:24;;;;;;;9.57;5.10;;;;;;;0.50;84.43;99152.09;5056074;28;20028;-68
2021/01/14 07:48:53;;;;;;;10.55;5.72;;;;;;;0.37;85.64;99156.91;5037925;28;20466;-67
2021/01/14 07:51:19;;;;;;;9.40;5.93;;;;;;;0.15;85.34;99112.25;5055838;28;20448;-68
2021/01/14 07:54:06;;;;;;;10.30;4.72;;;;;;;0.23;85.00;99117.22;5055748;28;20338;-67
2021/01/14 07:56:43;;;;;;;10.50;6.10;;;;;;;0.49;85.75;99177.47;5055402;28;20040;-68
2021/01/14 07:59:10;;;;;;;10.25;5.70;;;;;;;0.45;84.37;99147.00;5055764;28;20041;-68
2021/01/14 08:02:02;;;;;;;8.88;4.90;;;;;;;0.55;85.06;99171.97;5037784;28;20037;-67
2021/01/14 08:04:27;;;;;;;10.57;5.22;;;;;;;0.64;84.16;99180.44;5055644;28;20028;-68
2021/01/14 08:06:53;;;;;;;6.85;4.00;;;;;;;0.57;83.51;99179.78;5055580;28;20049;-67
2021/01/14 08:09:19;;;;;;;10.77;5.60;;;;;;;0.64;82.70;99180.44;5055178;28;20060;-67
2021/01/14 08:11:44;;;;;;;8.20;4.93;;;;;;;0.69;82.07;99181.13;5055364;28;20037;-67
2021/01/14 08:14:36;;;;;;;9.88;5.60;;;;;;;0.60;81.67;99195.44;5037165;28;20474;-68
2021/01/14 08:17:20;;;;;;;10.57;5.38;;;;;;;0.51;80.56;99194.00;5055104;28;20022;-67
2021/01/14 08:19:45;;;;;;;7.10;4.38;;;;;;;0.34;79.85;99193.75;5055222;28;20123;-67
2021/01/14 08:22:13;;;;;;;9.93;5.15;;;;;;;0.62;79.62;99188.38;5037186;28;20108;-67
2021/01/14 08:24:49;;;;;;;9.20;5.50;;;;;;;0.66;79.44;99192.59;5055104;28;20108;-67
2021/01/14 08:27:22;;;;;;;12.43;5.15;;;;;;;0.86;78.75;99191.84;5054876;28;20060;-68
2021/01/14 08:30:06;;;;;;;7.90;4.63;;;;;;;0.85;77.81;99195.38;5054942;28;20079;-69
2021/01/14 08:32:48;;;;;;;7.03;4.00;;;;;;;0.60;79.24;99187.56;5055167;28;20029;-67
2021/01/14 08:35:16;;;;;;;9.32;4.47;;;;;;;0.69;79.07;99208.25;5055007;28;20037;-67
2021/01/14 08:37:56;;;;;;;12.82;6.47;;;;;;;1.02;77.81;99219.25;5054864;28;20051;-67
2021/01/14 08:40:21;;;;;;;9.32;5.07;;;;;;;1.02;76.82;99208.75;5054665;28;20033;-68
2021/01/14 08:42:48;;;;;;;8.27;3.95;;;;;;;1.09;75.91;99215.47;5054411;28;20025;-68
2021/01/14 08:45:19;;;;;;;6.57;3.83;;;;;;;0.93;75.45;99226.59;5037259;28;20036;-67
2021/01/14 08:47:58;;;;;;;6.22;3.03;;;;;;;0.83;75.08;99223.47;5037044;28;20025;-67
2021/01/14 08:50:56;;;;;;;7.15;3.45;;;;;;;0.80;75.48;99228.84;5036928;28;20381;-67
2021/01/14 08:53:21;;;;;;;9.63;4.32;;;;;;;0.94;75.82;99216.03;5054817;28;20033;-67
2021/01/14 08:56:16;;;;;;;8.07;4.00;;;;;;;0.86;75.92;99226.81;5054710;28;20037;-79
2021/01/14 08:58:48;;;;;;;7.78;4.57;;;;;;;0.96;75.17;99210.72;5033042;28;20041;-67
2021/01/14 09:01:18;;;;;;;7.53;4.13;;;;;;;0.97;74.34;99212.47;5036693;28;20383;-68
2021/01/14 09:03:45;;;;;;;7.30;3.92;;;;;;;0.96;74.42;99208.97;5054528;28;20061;-67
2021/01/14 09:06:11;;;;;;;8.20;4.05;;;;;;;0.90;73.90;99230.22;5054128;28;20076;-68
2021/01/14 09:08:38;;;;;;;6.15;3.92;;;;;;;0.81;73.66;99220.06;5054710;28;20064;-67
2021/01/14 09:11:04;;;;;;;7.07;3.80;;;;;;;0.62;74.01;99209.38;5054110;28;20037;-67
2021/01/14 09:13:31;;;;;;;5.55;3.20;;;;;;;0.71;73.49;99218.69;5036351;28;20041;-67
2021/01/14 09:16:05;;;;;;;7.30;3.72;;;;;;;0.71;73.69;99231.81;5036352;28;20037;-68
2021/01/14 09:18:40;;;;;;;6.28;2.75;;;;;;;0.60;74.29;99205.09;5037358;28;20036;-67
2021/01/14 09:21:07;;;;;;;6.95;3.20;;;;;;;0.75;73.46;99223.75;5053859;28;20040;-68
2021/01/14 09:23:35;;;;;;;5.38;2.47;;;;;;;0.59;73.34;99227.00;5053981;28;20076;-68
2021/01/14 09:26:09;;;;;;;5.68;2.90;;;;;;;0.39;73.31;99186.59;5052751;28;20044;-67
2021/01/14 09:28:35;;;;;;;4.65;2.30;;;;;;;0.27;75.04;99193.09;5054113;28;20052;-68
2021/01/14 09:31:06;;;;;;;5.18;2.72;;;;;;;0.61;73.88;99254.03;5019497;28;20482;-67
2021/01/14 09:33:34;;;;;;;5.75;3.20;;;;;;;0.61;73.28;99207.66;5054070;28;20394;-67
2021/01/14 09:36:03;;;;;;;7.07;2.53;;;;;;;0.36;74.01;99220.78;5053617;28;20078;-68
2021/01/14 09:38:29;;;;;;;6.63;2.92;;;;;;;0.61;73.00;99254.03;5057586;28;20490;-68
2021/01/14 09:40:56;;;;;;;4.40;2.25;;;;;;;0.67;71.77;99251.19;5072217;28;20101;-68
2021/01/14 09:43:24;;;;;;;7.40;3.45;;;;;;;0.47;73.59;99244.88;5073718;28;20036;-67
2021/01/14 09:45:50;;;;;;;8.98;2.95;;;;;;;0.35;74.38;99258.41;5072474;28;20497;-66
2021/01/14 09:48:19;;;;;;;7.20;3.00;;;;;;;0.34;73.88;99225.22;5073475;28;20064;-67
2021/01/14 09:50:45;;;;;;;7.13;3.40;;;;;;;0.36;73.74;99212.06;5073558;28;20501;-67
2021/01/14 09:53:10;;;;;;;4.63;2.53;;;;;;;0.41;71.59;99215.38;5072277;28;20434;-68
2021/01/14 09:55:36;;;;;;;4.50;2.53;;;;;;;0.56;71.95;99259.44;5072546;28;20458;-68
2021/01/14 09:58:03;;;;;;;3.83;2.33;;;;;;;0.24;72.38;99197.63;5073326;28;20082;-66
2021/01/14 10:00:30;;;;;;;5.30;2.88;;;;;;;0.48;72.43;99262.34;5073508;28;20032;-67
2021/01/14 10:03:06;;;;;;;6.97;3.20;;;;;;;0.64;72.88;99277.53;5073007;28;20032;-68
2021/01/14 10:05:32;;;;;;;5.22;2.65;;;;;;;0.55;72.02;99276.09;5073461;28;20028;-68
2021/01/14 10:08:01;;;;;;;5.50;3.22;;;;;;;0.52;71.01;99250.81;5071884;28;20074;-66
2021/01/14 10:10:31;;;;;;;5.10;2.88;;;;;;;0.81;69.90;99267.31;5073416;28;20369;-67
2021/01/14 10:13:00;;;;;;;4.72;2.75;;;;;;;0.96;70.74;99258.84;5073170;28;20097;-68
2021/01/14 10:15:26;;;;;;;6.40;2.70;;;;;;;0.83;69.09;99247.09;5073265;28;20398;-68
2021/01/14 10:17:52;;;;;;;5.60;2.00;;;;;;;0.55;70.10;99237.59;5072015;28;20029;-67
2021/01/14 10:20:17;;;;;;;5.60;2.88;;;;;;;0.91;69.92;99252.94;5071780;28;20537;-67
2021/01/14 10:22:53;;;;;;;5.70;2.50;;;;;;;1.03;68.87;99272.63;5072074;28;20073;-67
2021/01/14 10:25:20;;;;;;;7.10;2.83;;;;;;;1.00;69.74;99270.97;5071891;28;20371;-67
2021/01/14 10:28:00;;;;;;;5.55;2.47;;;;;;;0.86;69.77;99257.47;5055176;28;20492;-67
2021/01/14 10:30:26;;;;;;;5.57;2.58;;;;;;;0.67;69.37;99254.66;5073350;28;20082;-67
2021/01/14 10:33:03;;;;;;;6.00;2.95;;;;;;;0.88;69.44;99284.56;5072787;28;20029;-68
2021/01/14 10:35:30;;;;;;;7.88;3.10;;;;;;;0.73;69.16;99243.94;5072846;28;20077;-68
2021/01/14 10:38:06;;;;;;;6.18;2.83;;;;;;;0.92;70.37;99296.66;5068925;28;20386;-68
2021/01/14 10:40:42;;;;;;;6.60;2.78;;;;;;;1.05;69.10;99271.63;5057328;28;20028;-66
2021/01/14 10:43:09;;;;;;;4.50;2.22;;;;;;;0.95;69.01;99265.00;5056591;28;20029;-68
2021/01/14 10:45:39;;;;;;;4.72;2.47;;;;;;;0.66;68.66;99257.34;5039220;28;20067;-68
2021/01/14 10:48:10;;;;;;;3.78;2.38;;;;;;;0.84;69.33;99299.53;5038932;28;20174;-68
2021/01/14 10:50:47;;;;;;;6.38;3.28;;;;;;;0.78;70.49;99309.44;5057005;28;20032;-67
2021/01/14 10:53:22;;;;;;;7.43;2.65;;;;;;;0.66;71.05;99304.59;5038892;28;20500;-66
2021/01/14 10:55:47;;;;;;;5.32;2.80;;;;;;;0.49;70.79;99297.31;5056520;28;20090;-66
2021/01/14 10:58:20;;;;;;;6.47;3.25;;;;;;;0.59;70.67;99326.72;5038928;28;20108;-66
2021/01/14 11:00:46;;;;;;;6.75;3.33;;;;;;;0.56;72.09;99311.91;5056895;28;20032;-68
2021/01/14 11:03:14;;;;;;;7.47;3.20;;;;;;;0.72;72.11;99310.47;5038728;28;20363;-68
2021/01/14 11:05:45;;;;;;;6.38;3.30;;;;;;;0.68;72.63;99313.28;5056679;28;20120;-67
2021/01/14 11:08:13;;;;;;;7.22;3.20;;;;;;;0.65;72.78;99308.97;5022336;28;20036;-67
2021/01/14 11:10:40;;;;;;;5.63;2.58;;;;;;;0.63;72.23;99302.06;5038765;28;20420;-67
2021/01/14 11:13:08;;;;;;;6.88;3.17;;;;;;;0.64;71.38;99304.66;5038440;28;20036;-67
2021/01/14 11:15:34;;;;;;;8.15;3.30;;;;;;;0.64;71.07;99291.53;5038874;28;20426;-67
2021/01/14 11:18:00;;;;;;;4.70;2.55;;;;;;;0.67;71.17;99296.66;5056350;28;20112;-68
2021/01/14 11:20:25;;;;;;;5.63;2.90;;;;;;;0.69;70.49;99280.88;5056408;28;20040;-68
2021/01/14 11:22:51;;;;;;;4.93;2.88;;;;;;;0.90;70.32;99301.09;5056443;28;20441;-66
2021/01/14 11:25:16;;;;;;;6.10;2.67;;;;;;;0.76;71.94;99304.19;5056149;28;20060;-68
2021/01/14 11:27:42;;;;;;;6.50;2.53;;;;;;;0.63;71.05;99267.97;5056305;28;20037;-68
2021/01/14 11:30:07;;;;;;;7.15;3.03;;;;;;;0.94;70.70;99304.47;5038017;28;20116;-67
2021/01/14 11:32:33;;;;;;;4.78;2.72;;;;;;;0.85;71.23;99326.66;5038279;28;20037;-67
2021/01/14 11:34:59;;;;;;;7.15;3.08;;;;;;;0.73;72.51;99295.59;5038033;28;20037;-70
2021/01/14 11:37:24;;;;;;;4.05;2.45;;;;;;;0.57;72.67;99275.13;5056292;28;20056;-67
2021/01/14 11:39:49;;;;;;;5.75;2.95;;;;;;;0.63;73.47;99326.56;5038300;28;20032;-67
2021/01/14 11:42:15;;;;;;;5.45;2.65;;;;;;;0.41;74.09;99284.47;5055518;28;20540;-68
2021/01/14 11:44:40;;;;;;;7.03;3.40;;;;;;;0.85;72.55;99319.63;5021741;28;20029;-67
2021/01/14 11:47:06;;;;;;;6.82;2.55;;;;;;;0.92;73.25;99322.91;5037666;28;20048;-66